PRIVATE WETTERSTATION BILLIGHEIM-ALLFELD                       ZURCK
Wetterdaten: Dienstag, 01.03.2016
Datum Zeit Temp. A. Temp. A. min Temp. A. max Feuchte A. Luftdruck Regen Wind Richtung Richtung Sonnenschein ET Solar Taupunkt Windchill Windben Empfang
01.03.2016 00:00 -0,6 C -0,6 C -0,6 C 91 % 1020,0 hPa 0,0 l/m 0,0 km/h (0 Bft) N-NW 337 0 min 0,000 mm 0 W/m -1,9 C -0,6 C 4,8 km/h (1 Bft) 100 %
01.03.2016 00:10 -0,5 C -0,6 C -0,4 C 91 % 1020,0 hPa 0,0 l/m 0,0 km/h (0 Bft) N-NW 337 0 min 0,000 mm 0 W/m -1,8 C -0,5 C 1,6 km/h (1 Bft) 100 %
01.03.2016 00:20 -0,3 C -0,4 C -0,3 C 91 % 1020,0 hPa 0,2 l/m 0,0 km/h (0 Bft) N-NW 337 0 min 0,000 mm 0 W/m -1,6 C -0,3 C 3,2 km/h (1 Bft) 100 %
01.03.2016 00:30 -0,2 C -0,3 C -0,2 C 91 % 1020,0 hPa 0,0 l/m 1,6 km/h (1 Bft) N-NW 337 0 min 0,000 mm 0 W/m -1,5 C -0,2 C 4,8 km/h (1 Bft) 100 %
01.03.2016 00:40 -0,1 C -0,2 C -0,1 C 91 % 1020,1 hPa 0,0 l/m 0,0 km/h (0 Bft) N-NW 337 0 min 0,000 mm 0 W/m -1,4 C -0,1 C 1,6 km/h (1 Bft) 100 %
01.03.2016 00:50 0,1 C -0,1 C 0,1 C 91 % 1020,1 hPa 0,0 l/m 0,0 km/h (0 Bft) N-NW 337 0 min 0,000 mm 0 W/m -1,2 C 0,1 C 4,8 km/h (1 Bft) 100 %
01.03.2016 01:00 0,1 C 0,1 C 0,1 C 91 % 1020,0 hPa 0,0 l/m 0,0 km/h (0 Bft) N-NW 337 0 min 0,000 mm 0 W/m -1,2 C 0,1 C 1,6 km/h (1 Bft) 100 %
01.03.2016 01:10 0,0 C 0,0 C 0,1 C 91 % 1020,0 hPa 0,0 l/m 0,0 km/h (0 Bft) N-NW 337 0 min 0,000 mm 0 W/m -1,3 C 0,0 C 4,8 km/h (1 Bft) 100 %
01.03.2016 01:20 -0,1 C -0,1 C 0,0 C 91 % 1020,0 hPa 0,0 l/m 0,0 km/h (0 Bft) N-NW 337 0 min 0,000 mm 0 W/m -1,4 C -0,1 C 3,2 km/h (1 Bft) 100 %
01.03.2016 01:30 -0,2 C -0,2 C -0,1 C 91 % 1020,1 hPa 0,0 l/m 0,0 km/h (0 Bft) N-NW 337 0 min 0,000 mm 0 W/m -1,5 C -0,2 C 3,2 km/h (1 Bft) 100 %
01.03.2016 01:40 -0,2 C -0,2 C -0,2 C 91 % 1020,1 hPa 0,0 l/m 0,0 km/h (0 Bft) N-NW 337 0 min 0,000 mm 0 W/m -1,5 C -0,2 C 1,6 km/h (1 Bft) 100 %
01.03.2016 01:50 -0,3 C -0,3 C -0,2 C 91 % 1020,2 hPa 0,0 l/m 0,0 km/h (0 Bft) N 0 0 min 0,000 mm 0 W/m -1,6 C -0,3 C 0,0 km/h (0 Bft) 100 %
01.03.2016 02:00 -0,3 C -0,3 C -0,3 C 91 % 1020,3 hPa 0,0 l/m 0,0 km/h (0 Bft) N-NW 337 0 min 0,000 mm 0 W/m -1,6 C -0,3 C 3,2 km/h (1 Bft) 99 %
01.03.2016 02:10 -0,2 C -0,3 C -0,2 C 91 % 1020,2 hPa 0,0 l/m 1,6 km/h (1 Bft) N-NW 337 0 min 0,000 mm 0 W/m -1,5 C -0,2 C 6,4 km/h (2 Bft) 100 %
01.03.2016 02:20 -0,1 C -0,2 C -0,1 C 91 % 1020,2 hPa 0,0 l/m 0,0 km/h (0 Bft) N-NW 337 0 min 0,000 mm 0 W/m -1,4 C -0,1 C 6,4 km/h (2 Bft) 100 %
01.03.2016 02:30 0,0 C -0,1 C 0,0 C 91 % 1020,1 hPa 0,0 l/m 0,0 km/h (0 Bft) N 360 0 min 0,000 mm 0 W/m -1,3 C 0,0 C 3,2 km/h (1 Bft) 99 %
01.03.2016 02:40 0,0 C 0,0 C 0,0 C 90 % 1020,1 hPa 0,0 l/m 0,0 km/h (0 Bft) N 360 0 min 0,000 mm 0 W/m -1,4 C 0,0 C 1,6 km/h (1 Bft) 100 %
01.03.2016 02:50 -0,1 C -0,1 C 0,0 C 90 % 1020,1 hPa 0,0 l/m 0,0 km/h (0 Bft) N 360 0 min 0,000 mm 0 W/m -1,5 C -0,1 C 1,6 km/h (1 Bft) 100 %
01.03.2016 03:00 0,0 C -0,1 C 0,0 C 90 % 1020,1 hPa 0,0 l/m 0,0 km/h (0 Bft) N 0 0 min 0,000 mm 0 W/m -1,4 C 0,0 C 0,0 km/h (0 Bft) 100 %
01.03.2016 03:10 0,1 C -0,1 C 0,1 C 90 % 1020,1 hPa 0,0 l/m 0,0 km/h (0 Bft) N 0 0 min 0,000 mm 0 W/m -1,3 C 0,1 C 0,0 km/h (0 Bft) 100 %
01.03.2016 03:20 0,2 C 0,1 C 0,2 C 90 % 1020,1 hPa 0,0 l/m 0,0 km/h (0 Bft) N-NW 337 0 min 0,000 mm 0 W/m -1,2 C 0,2 C 4,8 km/h (1 Bft) 91 %
01.03.2016 03:30 0,4 C 0,2 C 0,4 C 90 % 1020,1 hPa 0,0 l/m 0,0 km/h (0 Bft) N-NW 337 0 min 0,000 mm 0 W/m -1,0 C 0,4 C 1,6 km/h (1 Bft) 99 %
01.03.2016 03:40 0,4 C 0,4 C 0,5 C 89 % 1020,3 hPa 0,0 l/m 0,0 km/h (0 Bft) N-NW 337 0 min 0,000 mm 0 W/m -1,2 C 0,4 C 3,2 km/h (1 Bft) 98 %
01.03.2016 03:50 0,6 C 0,4 C 0,6 C 89 % 1020,3 hPa 0,0 l/m 0,0 km/h (0 Bft) N-NW 337 0 min 0,000 mm 0 W/m -1,0 C 0,6 C 4,8 km/h (1 Bft) 98 %
01.03.2016 04:00 0,6 C 0,5 C 0,6 C 89 % 1020,4 hPa 0,0 l/m 0,0 km/h (0 Bft) N-NW 337 0 min 0,000 mm 0 W/m -1,0 C 0,6 C 1,6 km/h (1 Bft) 97 %
01.03.2016 04:10 0,5 C 0,5 C 0,6 C 88 % 1020,4 hPa 0,0 l/m 0,0 km/h (0 Bft) N 0 0 min 0,000 mm 0 W/m -1,3 C 0,5 C 0,0 km/h (0 Bft) 97 %
01.03.2016 04:20 0,4 C 0,4 C 0,5 C 89 % 1020,6 hPa 0,0 l/m 0,0 km/h (0 Bft) N 0 0 min 0,000 mm 0 W/m -1,2 C 0,4 C 0,0 km/h (0 Bft) 98 %
01.03.2016 04:30 0,3 C 0,3 C 0,4 C 89 % 1020,7 hPa 0,0 l/m 0,0 km/h (0 Bft) N-NW 337 0 min 0,000 mm 0 W/m -1,3 C 0,3 C 3,2 km/h (1 Bft) 98 %
01.03.2016 04:40 0,1 C 0,1 C 0,3 C 89 % 1020,9 hPa 0,0 l/m 0,0 km/h (0 Bft) N 0 0 min 0,000 mm 0 W/m -1,5 C 0,1 C 0,0 km/h (0 Bft) 98 %
01.03.2016 04:50 -0,1 C -0,1 C 0,1 C 89 % 1021,1 hPa 0,0 l/m 0,0 km/h (0 Bft) N-NW 337 0 min 0,000 mm 0 W/m -1,7 C -0,1 C 1,6 km/h (1 Bft) 97 %
01.03.2016 05:00 -0,1 C -0,1 C -0,1 C 90 % 1021,2 hPa 0,0 l/m 0,0 km/h (0 Bft) N-NW 337 0 min 0,000 mm 0 W/m -1,5 C -0,1 C 4,8 km/h (1 Bft) 98 %
01.03.2016 05:10 0,1 C -0,1 C 0,1 C 90 % 1021,2 hPa 0,0 l/m 0,0 km/h (0 Bft) N 0 0 min 0,000 mm 0 W/m -1,3 C 0,1 C 0,0 km/h (0 Bft) 97 %
01.03.2016 05:20 0,1 C 0,1 C 0,1 C 90 % 1021,3 hPa 0,0 l/m 0,0 km/h (0 Bft) N 0 0 min 0,000 mm 0 W/m -1,3 C 0,1 C 0,0 km/h (0 Bft) 98 %
01.03.2016 05:30 0,1 C 0,1 C 0,2 C 90 % 1021,2 hPa 0,0 l/m 0,0 km/h (0 Bft) N-NW 337 0 min 0,000 mm 0 W/m -1,3 C 0,1 C 1,6 km/h (1 Bft) 97 %
01.03.2016 05:40 0,1 C 0,1 C 0,1 C 89 % 1021,2 hPa 0,0 l/m 0,0 km/h (0 Bft) N-NW 337 0 min 0,000 mm 0 W/m -1,5 C 0,1 C 4,8 km/h (1 Bft) 98 %
01.03.2016 05:50 0,0 C 0,0 C 0,1 C 89 % 1021,2 hPa 0,0 l/m 0,0 km/h (0 Bft) N-NW 337 0 min 0,000 mm 0 W/m -1,6 C 0,0 C 3,2 km/h (1 Bft) 97 %
01.03.2016 06:00 -0,1 C -0,1 C 0,0 C 89 % 1021,1 hPa 0,0 l/m 0,0 km/h (0 Bft) N 0 0 min 0,000 mm 0 W/m -1,7 C -0,1 C 0,0 km/h (0 Bft) 97 %
01.03.2016 06:10 -0,2 C -0,2 C -0,1 C 90 % 1021,1 hPa 0,0 l/m 0,0 km/h (0 Bft) N 0 0 min 0,000 mm 0 W/m -1,6 C -0,2 C 0,0 km/h (0 Bft) 98 %
01.03.2016 06:20 -0,3 C -0,3 C -0,2 C 90 % 1021,0 hPa 0,0 l/m 0,0 km/h (0 Bft) N 0 0 min 0,000 mm 0 W/m -1,7 C -0,3 C 0,0 km/h (0 Bft) 97 %
01.03.2016 06:30 -0,3 C -0,3 C -0,3 C 90 % 1020,9 hPa 0,0 l/m 0,0 km/h (0 Bft) N 0 0 min 0,000 mm 0 W/m -1,7 C -0,3 C 0,0 km/h (0 Bft) 98 %
01.03.2016 06:40 -0,2 C -0,3 C -0,2 C 90 % 1021,0 hPa 0,0 l/m 0,0 km/h (0 Bft) N-NW 337 0 min 0,000 mm 0 W/m -1,6 C -0,2 C 1,6 km/h (1 Bft) 98 %
01.03.2016 06:50 -0,1 C -0,3 C -0,1 C 90 % 1021,2 hPa 0,0 l/m 0,0 km/h (0 Bft) N-NW 337 0 min 0,000 mm 0 W/m -1,5 C -0,1 C 4,8 km/h (1 Bft) 97 %
01.03.2016 07:00 -0,1 C -0,1 C -0,1 C 89 % 1021,3 hPa 0,0 l/m 1,6 km/h (1 Bft) W 270 0 min 0,000 mm 0 W/m -1,7 C -0,1 C 6,4 km/h (2 Bft) 98 %
01.03.2016 07:10 -0,1 C -0,1 C -0,1 C 89 % 1021,2 hPa 0,0 l/m 0,0 km/h (0 Bft) W-NW 292 0 min 0,000 mm 0 W/m -1,7 C -0,1 C 6,4 km/h (2 Bft) 97 %
01.03.2016 07:20 -0,1 C -0,1 C -0,1 C 89 % 1021,1 hPa 0,0 l/m 0,0 km/h (0 Bft) W-NW 292 0 min 0,000 mm 0 W/m -1,7 C -0,1 C 1,6 km/h (1 Bft) 98 %
01.03.2016 07:30 -0,2 C -0,2 C -0,1 C 89 % 1021,2 hPa 0,0 l/m 0,0 km/h (0 Bft) N 0 0 min 0,000 mm 7 W/m -1,8 C -0,2 C 0,0 km/h (0 Bft) 97 %
01.03.2016 07:40 -0,4 C -0,4 C -0,2 C 89 % 1021,3 hPa 0,0 l/m 0,0 km/h (0 Bft) N 0 0 min 0,000 mm 12 W/m -2,0 C -0,4 C 0,0 km/h (0 Bft) 98 %
01.03.2016 07:50 -0,4 C -0,4 C -0,4 C 90 % 1021,4 hPa 0,0 l/m 0,0 km/h (0 Bft) N 0 0 min 0,000 mm 21 W/m -1,8 C -0,4 C 0,0 km/h (0 Bft) 98 %
01.03.2016 08:00 -0,3 C -0,4 C -0,3 C 90 % 1021,7 hPa 0,0 l/m 0,0 km/h (0 Bft) W-NW 292 0 min 0,000 mm 32 W/m -1,7 C -0,3 C 1,6 km/h (1 Bft) 97 %
01.03.2016 08:10 0,1 C -0,2 C 0,1 C 89 % 1021,7 hPa 0,0 l/m 0,0 km/h (0 Bft) W-NW 292 0 min 0,000 mm 39 W/m -1,5 C 0,1 C 1,6 km/h (1 Bft) 98 %
01.03.2016 08:20 0,3 C 0,1 C 0,3 C 89 % 1021,8 hPa 0,0 l/m 0,0 km/h (0 Bft) W-NW 292 0 min 0,000 mm 37 W/m -1,3 C 0,3 C 4,8 km/h (1 Bft) 97 %
01.03.2016 08:30 0,6 C 0,3 C 0,6 C 88 % 1021,8 hPa 0,0 l/m 1,6 km/h (1 Bft) W-SW 247 0 min 0,000 mm 70 W/m -1,2 C 0,6 C 6,4 km/h (2 Bft) 98 %
01.03.2016 08:40 1,2 C 0,6 C 1,2 C 88 % 1021,8 hPa 0,0 l/m 0,0 km/h (0 Bft) SW 225 10 min 0,000 mm 221 W/m -0,6 C 1,2 C 3,2 km/h (1 Bft) 97 %
01.03.2016 08:50 1,7 C 1,2 C 1,7 C 84 % 1021,8 hPa 0,0 l/m 0,0 km/h (0 Bft) W 270 10 min 0,000 mm 297 W/m -0,7 C 1,7 C 9,7 km/h (2 Bft) 98 %
01.03.2016 09:00 1,8 C 1,6 C 1,8 C 84 % 1021,8 hPa 0,0 l/m 0,0 km/h (0 Bft) W 270 10 min 0,051 mm 290 W/m -0,6 C 1,8 C 4,8 km/h (1 Bft) 97 %
01.03.2016 09:10 2,7 C 1,8 C 2,7 C 84 % 1021,8 hPa 0,0 l/m 0,0 km/h (0 Bft) W 270 10 min 0,000 mm 251 W/m 0,3 C 2,7 C 4,8 km/h (1 Bft) 98 %
01.03.2016 09:20 3,1 C 2,7 C 3,1 C 81 % 1021,7 hPa 0,0 l/m 0,0 km/h (0 Bft) W 270 10 min 0,000 mm 274 W/m 0,2 C 3,1 C 6,4 km/h (2 Bft) 98 %
01.03.2016 09:30 3,3 C 3,1 C 3,3 C 77 % 1021,6 hPa 0,0 l/m 1,6 km/h (1 Bft) W 270 10 min 0,000 mm 288 W/m -0,3 C 3,3 C 9,7 km/h (2 Bft) 97 %
01.03.2016 09:40 3,1 C 3,1 C 3,3 C 78 % 1021,6 hPa 0,0 l/m 1,6 km/h (1 Bft) W 270 10 min 0,000 mm 322 W/m -0,4 C 3,1 C 6,4 km/h (2 Bft) 98 %
01.03.2016 09:50 3,2 C 3,1 C 3,2 C 77 % 1021,8 hPa 0,0 l/m 1,6 km/h (1 Bft) W 270 10 min 0,000 mm 341 W/m -0,4 C 3,2 C 9,7 km/h (2 Bft) 98 %
01.03.2016 10:10 3,6 C 3,1 C 3,6 C 74 % 1022,0 hPa 0,0 l/m 6,7 km/h (2 Bft) W-SW 251 20 min 0,101 mm 383 W/m -0,6 C 3,3 C 19,3 km/h (3 Bft) 100 %
01.03.2016 10:20 3,6 C 3,6 C 3,6 C 78 % 1021,9 hPa 0,0 l/m 9,7 km/h (2 Bft) SW 229 10 min 0,000 mm 406 W/m 0,1 C 0,8 C 22,5 km/h (4 Bft) 100 %
01.03.2016 10:30 3,8 C 3,6 C 3,8 C 77 % 1021,7 hPa 0,0 l/m 5,7 km/h (1 Bft) SW 222 10 min 0,000 mm 436 W/m 0,1 C 3,8 C 14,5 km/h (3 Bft) 100 %
01.03.2016 10:40 3,7 C 3,7 C 3,9 C 72 % 1021,7 hPa 0,0 l/m 10,9 km/h (2 Bft) W 263 10 min 0,000 mm 468 W/m -0,9 C -0,0 C 24,1 km/h (4 Bft) 100 %
01.03.2016 10:50 3,3 C 3,3 C 3,7 C 73 % 1021,6 hPa 0,0 l/m 10,9 km/h (2 Bft) SW 234 10 min 0,000 mm 404 W/m -1,1 C -0,5 C 24,1 km/h (4 Bft) 100 %
01.03.2016 11:00 3,5 C 3,3 C 3,5 C 75 % 1021,6 hPa 0,0 l/m 7,5 km/h (2 Bft) W 263 10 min 0,178 mm 512 W/m -0,5 C 2,5 C 20,9 km/h (4 Bft) 100 %
01.03.2016 11:10 3,7 C 3,5 C 3,7 C 72 % 1021,5 hPa 0,0 l/m 7,8 km/h (2 Bft) W 264 10 min 0,000 mm 156 W/m -0,9 C 2,4 C 17,7 km/h (3 Bft) 99 %
01.03.2016 11:20 3,9 C 3,6 C 3,9 C 73 % 1021,5 hPa 0,0 l/m 7,4 km/h (2 Bft) W 273 10 min 0,000 mm 346 W/m -0,5 C 3,0 C 22,5 km/h (4 Bft) 100 %
01.03.2016 11:30 4,0 C 3,8 C 4,0 C 74 % 1021,4 hPa 0,0 l/m 10,5 km/h (2 Bft) S-SW 194 10 min 0,000 mm 513 W/m -0,2 C 0,6 C 22,5 km/h (4 Bft) 100 %
01.03.2016 11:40 4,2 C 4,0 C 4,3 C 72 % 1021,4 hPa 0,0 l/m 11,3 km/h (2 Bft) SW 233 10 min 0,000 mm 239 W/m -0,4 C 0,3 C 22,5 km/h (4 Bft) 100 %
01.03.2016 11:50 4,1 C 4,1 C 4,2 C 73 % 1021,3 hPa 0,0 l/m 8,5 km/h (2 Bft) W-SW 258 10 min 0,000 mm 218 W/m -0,3 C 2,2 C 20,9 km/h (4 Bft) 91 %
01.03.2016 12:00 4,3 C 4,1 C 4,3 C 72 % 1021,1 hPa 0,0 l/m 8,3 km/h (2 Bft) W 263 10 min 0,178 mm 320 W/m -0,3 C 2,6 C 17,7 km/h (3 Bft) 100 %
01.03.2016 12:10 4,3 C 4,2 C 4,3 C 72 % 1021,0 hPa 0,0 l/m 8,5 km/h (2 Bft) W-SW 244 10 min 0,000 mm 329 W/m -0,3 C 2,5 C 20,9 km/h (4 Bft) 100 %
01.03.2016 12:20 4,3 C 4,3 C 4,3 C 71 % 1020,8 hPa 0,0 l/m 8,7 km/h (2 Bft) W-SW 250 10 min 0,000 mm 262 W/m -0,5 C 2,3 C 24,1 km/h (4 Bft) 100 %
01.03.2016 12:30 4,4 C 4,3 C 4,4 C 74 % 1020,4 hPa 0,0 l/m 8,5 km/h (2 Bft) W 272 10 min 0,000 mm 541 W/m 0,2 C 2,6 C 17,7 km/h (3 Bft) 100 %
01.03.2016 12:40 5,1 C 4,4 C 5,1 C 71 % 1020,3 hPa 0,0 l/m 7,1 km/h (2 Bft) W-SW 253 10 min 0,000 mm 244 W/m 0,3 C 4,5 C 20,9 km/h (4 Bft) 100 %
01.03.2016 12:50 5,0 C 5,0 C 5,2 C 71 % 1020,1 hPa 0,0 l/m 11,4 km/h (2 Bft) SW 223 10 min 0,000 mm 450 W/m 0,2 C 1,1 C 24,1 km/h (4 Bft) 100 %
01.03.2016 13:00 4,8 C 4,8 C 5,0 C 72 % 1019,9 hPa 0,0 l/m 8,1 km/h (2 Bft) SW 215 10 min 0,152 mm 221 W/m 0,2 C 3,3 C 19,3 km/h (3 Bft) 100 %
01.03.2016 13:10 5,0 C 4,8 C 5,0 C 70 % 1019,7 hPa 0,0 l/m 11,8 km/h (2 Bft) W 266 10 min 0,000 mm 577 W/m -0,0 C 0,9 C 24,1 km/h (4 Bft) 100 %
01.03.2016 13:20 5,5 C 5,0 C 5,5 C 68 % 1019,4 hPa 0,0 l/m 12,1 km/h (2 Bft) S-SW 207 10 min 0,000 mm 490 W/m 0,1 C 1,3 C 27,4 km/h (4 Bft) 100 %
01.03.2016 13:30 5,9 C 5,5 C 5,9 C 68 % 1019,3 hPa 0,0 l/m 13,9 km/h (3 Bft) SW 232 10 min 0,000 mm 483 W/m 0,5 C 0,7 C 25,7 km/h (4 Bft) 100 %
01.03.2016 13:40 5,9 C 5,9 C 6,1 C 67 % 1019,2 hPa 0,0 l/m 15,8 km/h (3 Bft) SW 221 10 min 0,000 mm 330 W/m 0,3 C -0,2 C 27,4 km/h (4 Bft) 99 %
01.03.2016 13:50 5,9 C 5,8 C 5,9 C 68 % 1019,1 hPa 0,0 l/m 14,5 km/h (3 Bft) S 178 10 min 0,000 mm 473 W/m 0,5 C 0,4 C 27,4 km/h (4 Bft) 100 %
01.03.2016 14:00 6,1 C 5,9 C 6,1 C 66 % 1018,9 hPa 0,0 l/m 16,4 km/h (3 Bft) W 270 10 min 0,204 mm 309 W/m 0,2 C -0,3 C 32,2 km/h (5 Bft) 100 %
01.03.2016 14:10 6,2 C 6,1 C 6,2 C 67 % 1018,7 hPa 0,0 l/m 12,7 km/h (3 Bft) W 261 10 min 0,000 mm 461 W/m 0,5 C 1,7 C 27,4 km/h (4 Bft) 100 %
01.03.2016 14:20 6,3 C 6,2 C 6,4 C 65 % 1018,6 hPa 0,0 l/m 15,1 km/h (3 Bft) SW 232 10 min 0,000 mm 246 W/m 0,2 C 0,6 C 32,2 km/h (5 Bft) 100 %
01.03.2016 14:30 6,3 C 6,2 C 6,3 C 65 % 1018,5 hPa 0,0 l/m 10,9 km/h (2 Bft) SW 218 10 min 0,000 mm 446 W/m 0,2 C 2,9 C 25,7 km/h (4 Bft) 99 %
01.03.2016 14:40 6,3 C 6,3 C 6,5 C 66 % 1018,6 hPa 0,0 l/m 13,0 km/h (3 Bft) SW 219 10 min 0,000 mm 156 W/m 0,4 C 1,7 C 29,0 km/h (5 Bft) 100 %
01.03.2016 14:50 6,3 C 6,2 C 6,3 C 65 % 1018,5 hPa 0,0 l/m 12,7 km/h (3 Bft) S-SW 204 10 min 0,000 mm 323 W/m 0,2 C 1,9 C 24,1 km/h (4 Bft) 100 %
01.03.2016 15:00 6,2 C 6,2 C 6,3 C 65 % 1018,4 hPa 0,0 l/m 14,7 km/h (3 Bft) W 259 10 min 0,177 mm 225 W/m 0,1 C 0,7 C 29,0 km/h (5 Bft) 100 %
01.03.2016 15:10 6,3 C 6,2 C 6,4 C 63 % 1018,3 hPa 0,0 l/m 12,9 km/h (3 Bft) SW 219 10 min 0,000 mm 160 W/m -0,2 C 1,7 C 30,6 km/h (5 Bft) 100 %
01.03.2016 15:20 6,3 C 6,3 C 6,3 C 63 % 1018,0 hPa 0,0 l/m 13,2 km/h (3 Bft) SW 231 0 min 0,000 mm 142 W/m -0,2 C 1,6 C 24,1 km/h (4 Bft) 99 %
01.03.2016 15:30 6,2 C 6,2 C 6,3 C 64 % 1017,9 hPa 0,0 l/m 10,0 km/h (2 Bft) W 280 0 min 0,000 mm 135 W/m -0,1 C 3,4 C 22,5 km/h (4 Bft) 100 %
01.03.2016 15:40 6,2 C 6,2 C 6,2 C 62 % 1018,0 hPa 0,0 l/m 12,4 km/h (3 Bft) S-SW 209 0 min 0,000 mm 123 W/m -0,5 C 1,9 C 27,4 km/h (4 Bft) 100 %
01.03.2016 15:50 6,1 C 6,1 C 6,2 C 62 % 1018,0 hPa 0,0 l/m 12,4 km/h (3 Bft) SW 227 0 min 0,000 mm 116 W/m -0,6 C 1,8 C 24,1 km/h (4 Bft) 100 %
01.03.2016 16:00 5,9 C 5,9 C 6,1 C 64 % 1017,9 hPa 0,0 l/m 11,2 km/h (2 Bft) S-SW 200 0 min 0,102 mm 118 W/m -0,4 C 2,3 C 27,4 km/h (4 Bft) 100 %
01.03.2016 16:10 5,8 C 5,8 C 5,9 C 63 % 1017,9 hPa 0,0 l/m 14,7 km/h (3 Bft) W 267 0 min 0,000 mm 116 W/m -0,7 C 0,2 C 27,4 km/h (4 Bft) 100 %
01.03.2016 16:20 5,7 C 5,7 C 5,8 C 63 % 1017,8 hPa 0,0 l/m 13,9 km/h (3 Bft) W-SW 243 0 min 0,000 mm 98 W/m -0,8 C 0,5 C 24,1 km/h (4 Bft) 100 %
01.03.2016 16:30 5,6 C 5,6 C 5,7 C 64 % 1017,7 hPa 0,0 l/m 14,4 km/h (3 Bft) S-SW 205 0 min 0,000 mm 84 W/m -0,7 C 0,1 C 22,5 km/h (4 Bft) 91 %
01.03.2016 16:40 5,3 C 5,3 C 5,6 C 65 % 1017,7 hPa 0,0 l/m 14,8 km/h (3 Bft) S-SW 195 0 min 0,000 mm 76 W/m -0,7 C -0,5 C 24,1 km/h (4 Bft) 100 %
01.03.2016 16:50 5,2 C 5,2 C 5,3 C 66 % 1017,6 hPa 0,0 l/m 10,6 km/h (2 Bft) SW 221 0 min 0,000 mm 69 W/m -0,6 C 1,9 C 20,9 km/h (4 Bft) 100 %
01.03.2016 17:00 5,2 C 5,2 C 5,2 C 67 % 1017,4 hPa 0,0 l/m 10,1 km/h (2 Bft) SW 228 0 min 0,076 mm 56 W/m -0,4 C 2,2 C 20,9 km/h (4 Bft) 100 %
01.03.2016 17:10 5,2 C 5,2 C 5,2 C 67 % 1017,4 hPa 0,0 l/m 8,6 km/h (2 Bft) SW 233 0 min 0,000 mm 44 W/m -0,4 C 3,3 C 22,5 km/h (4 Bft) 100 %
01.03.2016 17:20 5,2 C 5,2 C 5,2 C 67 % 1017,2 hPa 0,0 l/m 6,9 km/h (2 Bft) SW 229 0 min 0,000 mm 35 W/m -0,4 C 4,8 C 16,1 km/h (3 Bft) 100 %
01.03.2016 17:30 5,1 C 5,1 C 5,2 C 68 % 1017,2 hPa 0,0 l/m 5,9 km/h (2 Bft) SW 225 0 min 0,000 mm 23 W/m -0,3 C 5,1 C 16,1 km/h (3 Bft) 100 %
01.03.2016 17:40 5,0 C 5,0 C 5,1 C 69 % 1017,1 hPa 0,0 l/m 3,8 km/h (1 Bft) S-SW 209 0 min 0,000 mm 14 W/m -0,2 C 5,0 C 14,5 km/h (3 Bft) 100 %
01.03.2016 17:50 4,9 C 4,9 C 5,0 C 69 % 1016,9 hPa 0,0 l/m 5,5 km/h (1 Bft) S-SW 208 0 min 0,000 mm 7 W/m -0,3 C 4,9 C 11,3 km/h (2 Bft) 100 %
01.03.2016 18:00 4,8 C 4,8 C 4,9 C 71 % 1016,7 hPa 0,0 l/m 4,6 km/h (1 Bft) S 191 0 min 0,026 mm 0 W/m -0,0 C 4,8 C 11,3 km/h (2 Bft) 100 %
01.03.2016 18:10 4,7 C 4,7 C 4,8 C 72 % 1016,6 hPa 0,0 l/m 2,1 km/h (1 Bft) S-SW 195 0 min 0,000 mm 0 W/m 0,1 C 4,7 C 11,3 km/h (2 Bft) 100 %
01.03.2016 18:20 4,6 C 4,6 C 4,7 C 72 % 1016,5 hPa 0,0 l/m 4,5 km/h (1 Bft) S-SW 200 0 min 0,000 mm 0 W/m -0,0 C 4,6 C 9,7 km/h (2 Bft) 100 %
01.03.2016 18:30 4,7 C 4,6 C 4,7 C 72 % 1016,5 hPa 0,0 l/m 2,4 km/h (1 Bft) S-SW 209 0 min 0,000 mm 0 W/m 0,1 C 4,7 C 8,0 km/h (2 Bft) 100 %
01.03.2016 18:40 4,8 C 4,7 C 4,8 C 72 % 1016,5 hPa 0,0 l/m 3,8 km/h (1 Bft) S-SW 201 0 min 0,000 mm 0 W/m 0,2 C 4,8 C 9,7 km/h (2 Bft) 100 %
01.03.2016 18:50 4,8 C 4,8 C 4,8 C 73 % 1016,4 hPa 0,0 l/m 2,7 km/h (1 Bft) S-SW 213 0 min 0,000 mm 0 W/m 0,4 C 4,8 C 9,7 km/h (2 Bft) 100 %
01.03.2016 19:00 4,7 C 4,7 C 4,8 C 72 % 1016,4 hPa 0,0 l/m 3,3 km/h (1 Bft) S-SW 207 0 min 0,000 mm 0 W/m 0,1 C 4,7 C 9,7 km/h (2 Bft) 100 %
01.03.2016 19:10 4,7 C 4,7 C 4,7 C 73 % 1016,3 hPa 0,0 l/m 5,0 km/h (1 Bft) S-SW 203 0 min 0,000 mm 0 W/m 0,3 C 4,7 C 14,5 km/h (3 Bft) 100 %
01.03.2016 19:20 4,6 C 4,6 C 4,7 C 72 % 1016,3 hPa 0,0 l/m 8,7 km/h (2 Bft) W 268 0 min 0,000 mm 0 W/m -0,0 C 2,6 C 19,3 km/h (3 Bft) 100 %
01.03.2016 19:30 4,7 C 4,6 C 4,7 C 68 % 1016,3 hPa 0,0 l/m 11,7 km/h (2 Bft) S-SW 213 0 min 0,000 mm 0 W/m -0,7 C 0,6 C 24,1 km/h (4 Bft) 100 %
01.03.2016 19:40 4,7 C 4,7 C 4,7 C 66 % 1016,2 hPa 0,0 l/m 15,3 km/h (3 Bft) W-SW 239 0 min 0,000 mm 0 W/m -1,1 C -1,4 C 32,2 km/h (5 Bft) 100 %
01.03.2016 19:50 4,7 C 4,6 C 4,7 C 64 % 1016,1 hPa 0,0 l/m 13,2 km/h (3 Bft) SW 232 0 min 0,000 mm 0 W/m -1,5 C -0,3 C 30,6 km/h (5 Bft) 100 %
01.03.2016 20:00 4,5 C 4,5 C 4,7 C 64 % 1016,1 hPa 0,0 l/m 16,4 km/h (3 Bft) W 269 0 min 0,050 mm 0 W/m -1,7 C -2,2 C 37,0 km/h (5 Bft) 100 %
01.03.2016 20:10 4,3 C 4,3 C 4,5 C 65 % 1016,0 hPa 0,0 l/m 14,8 km/h (3 Bft) W-SW 248 0 min 0,000 mm 0 W/m -1,7 C -1,7 C 33,8 km/h (5 Bft) 100 %
01.03.2016 20:20 4,1 C 4,1 C 4,3 C 69 % 1016,2 hPa 0,0 l/m 15,6 km/h (3 Bft) SW 226 0 min 0,000 mm 0 W/m -1,1 C -2,3 C 35,4 km/h (5 Bft) 100 %
01.03.2016 20:30 3,4 C 3,4 C 4,1 C 76 % 1016,2 hPa 0,0 l/m 18,1 km/h (3 Bft) W 269 0 min 0,000 mm 0 W/m -0,4 C -4,4 C 32,2 km/h (5 Bft) 91 %
01.03.2016 20:40 3,0 C 3,0 C 3,4 C 80 % 1016,1 hPa 0,0 l/m 12,6 km/h (3 Bft) W 264 0 min 0,000 mm 0 W/m -0,1 C -1,9 C 29,0 km/h (5 Bft) 100 %
01.03.2016 20:50 2,7 C 2,7 C 3,0 C 83 % 1016,2 hPa 0,0 l/m 8,9 km/h (2 Bft) SW 214 0 min 0,000 mm 0 W/m 0,1 C 0,4 C 24,1 km/h (4 Bft) 100 %
01.03.2016 21:00 2,4 C 2,4 C 2,7 C 85 % 1016,1 hPa 0,0 l/m 8,2 km/h (2 Bft) S-SW 192 0 min 0,026 mm 0 W/m 0,1 C 0,7 C 19,3 km/h (3 Bft) 100 %
01.03.2016 21:10 2,2 C 2,2 C 2,4 C 87 % 1016,0 hPa 0,0 l/m 6,4 km/h (2 Bft) SW 225 0 min 0,000 mm 0 W/m 0,3 C 2,2 C 17,7 km/h (3 Bft) 100 %
01.03.2016 21:20 2,1 C 2,1 C 2,2 C 88 % 1016,1 hPa 0,0 l/m 4,8 km/h (1 Bft) SW 225 0 min 0,000 mm 0 W/m 0,3 C 2,1 C 12,9 km/h (3 Bft) 100 %
01.03.2016 21:30 2,1 C 2,0 C 2,1 C 89 % 1015,8 hPa 0,0 l/m 4,8 km/h (1 Bft) SW 225 0 min 0,000 mm 0 W/m 0,5 C 2,1 C 14,5 km/h (3 Bft) 100 %
01.03.2016 21:40 2,0 C 2,0 C 2,1 C 89 % 1015,7 hPa 0,0 l/m 4,8 km/h (1 Bft) SW 225 0 min 0,000 mm 0 W/m 0,4 C 2,0 C 11,3 km/h (2 Bft) 100 %
01.03.2016 21:50 1,9 C 1,9 C 2,0 C 89 % 1015,6 hPa 0,0 l/m 1,6 km/h (1 Bft) W-SW 247 0 min 0,000 mm 0 W/m 0,3 C 1,9 C 11,3 km/h (2 Bft) 100 %
01.03.2016 22:00 1,7 C 1,7 C 1,9 C 89 % 1015,6 hPa 0,0 l/m 1,6 km/h (1 Bft) W-SW 247 0 min 0,000 mm 0 W/m 0,1 C 1,7 C 11,3 km/h (2 Bft) 100 %
01.03.2016 22:10 1,6 C 1,6 C 1,7 C 90 % 1015,5 hPa 0,0 l/m 1,6 km/h (1 Bft) W-SW 247 0 min 0,000 mm 0 W/m 0,1 C 1,6 C 8,0 km/h (2 Bft) 100 %
01.03.2016 22:20 1,4 C 1,4 C 1,6 C 90 % 1015,3 hPa 0,0 l/m 4,8 km/h (1 Bft) W-SW 247 0 min 0,000 mm 0 W/m -0,1 C 1,4 C 16,1 km/h (3 Bft) 100 %
01.03.2016 22:30 1,4 C 1,4 C 1,4 C 91 % 1015,1 hPa 0,0 l/m 6,4 km/h (2 Bft) SW 225 0 min 0,000 mm 0 W/m 0,1 C 1,4 C 17,7 km/h (3 Bft) 100 %
01.03.2016 22:40 1,2 C 1,2 C 1,4 C 91 % 1015,0 hPa 0,2 l/m 9,7 km/h (2 Bft) SW 225 0 min 0,000 mm 0 W/m -0,1 C -1,9 C 17,7 km/h (3 Bft) 100 %
01.03.2016 22:50 1,2 C 1,1 C 1,2 C 91 % 1014,9 hPa 0,0 l/m 6,4 km/h (2 Bft) W-SW 247 0 min 0,000 mm 0 W/m -0,1 C 1,2 C 16,1 km/h (3 Bft) 100 %
01.03.2016 23:00 1,1 C 1,1 C 1,2 C 91 % 1014,7 hPa 0,0 l/m 9,7 km/h (2 Bft) SW 225 0 min 0,000 mm 0 W/m -0,2 C -2,0 C 19,3 km/h (3 Bft) 100 %
01.03.2016 23:10 1,1 C 1,1 C 1,1 C 91 % 1014,4 hPa 0,0 l/m 9,7 km/h (2 Bft) SW 225 0 min 0,000 mm 0 W/m -0,2 C -2,0 C 20,9 km/h (4 Bft) 100 %
01.03.2016 23:20 1,1 C 1,1 C 1,1 C 91 % 1014,3 hPa 0,2 l/m 12,9 km/h (3 Bft) SW 225 0 min 0,000 mm 0 W/m -0,2 C -4,3 C 22,5 km/h (4 Bft) 100 %
01.03.2016 23:30 1,0 C 1,0 C 1,1 C 91 % 1014,1 hPa 0,0 l/m 11,3 km/h (2 Bft) SW 225 0 min 0,000 mm 0 W/m -0,3 C -3,3 C 20,9 km/h (4 Bft) 100 %
01.03.2016 23:40 0,9 C 0,9 C 1,0 C 91 % 1013,9 hPa 0,0 l/m 11,3 km/h (2 Bft) SW 225 0 min 0,000 mm 0 W/m -0,4 C -3,5 C 19,3 km/h (3 Bft) 100 %
01.03.2016 23:50 0,9 C 0,9 C 0,9 C 91 % 1013,6 hPa 0,0 l/m 9,7 km/h (2 Bft) S-SW 202 0 min 0,000 mm 0 W/m -0,4 C -2,2 C 17,7 km/h (3 Bft) 100 %
_ Min-Zeit 00:00 00:00 00:00 15:40 23:50 - 00:00 - - - - - 07:40 20:30 01:50 20:30
Minimum _ -0,6 C -0,6 C -0,6 C 62 % 1013,6 hPa - 0,0 km/h (0 Bft) - - - - - -2,0 C -4,4 C 0,0 km/h (0 Bft) 91 %
_ Max-Zeit 14:40 14:40 14:40 00:00 10:10 00:20 20:30 - - 10:10 14:00 13:10 14:10 17:30 20:00 00:00
Maximum _ 6,5 C 6,3 C 6,5 C 91 % 1022,0 hPa 0,2 l/m 18,1 km/h
W (3 Bft)
- - 20 min 0,204 mm 577 W/m 0,5 C 5,1 C 37,0 km/h
SW (5 Bft)
100 %
Durchschnitt _ 2,6 C 2,5 C 2,6 C 80 % 1019,0 hPa #0,6 l/m 5,6 km/h (1 Bft) SW - #6:40 h #1,321 mm 240 W/m -0,7 C 0,9 C 13,6 km/h (3 Bft) 99 %
PRIVATE WETTERSTATION BILLIGHEIM-ALLFELD - www.neckar-odenwald-wetter.de - Holger Sonntag